Time;durP1;ratioP1;P1;durP2;ratioP2;P2;SDS_P1;SDS_P2;PMS_P1;PMS_P2;Temp;Humidity;BMP_temperature;BMP_pressure;BME280_temperature;BME280_humidity;BME280_pressure;Samples;Min_cycle;Max_cycle;Signal;HPM_P1;HPM_P2
2023/04/24 00:02:12;;;;;;;18.20;12.60;;;10.30;99.90;;;;;;5074581;28;20052;-24
2023/04/24 00:04:41;;;;;;;19.50;13.02;;;10.30;99.90;;;;;;5073986;28;20052;-24
2023/04/24 00:07:07;;;;;;;17.20;12.65;;;10.30;99.90;;;;;;5073925;28;20080;-25
2023/04/24 00:09:33;;;;;;;21.73;14.55;;;10.30;99.90;;;;;;5073850;28;20541;-24
2023/04/24 00:11:59;;;;;;;17.55;12.65;;;10.30;99.90;;;;;;5073790;28;20049;-24
2023/04/24 00:14:25;;;;;;;17.60;12.65;;;10.30;99.90;;;;;;5073834;28;20075;-24
2023/04/24 00:16:51;;;;;;;16.75;11.98;;;10.30;99.90;;;;;;5056171;28;20083;-24
2023/04/24 00:19:17;;;;;;;13.15;10.60;;;10.20;99.90;;;;;;5074077;28;20055;-24
2023/04/24 00:21:43;;;;;;;14.38;10.77;;;10.20;99.90;;;;;;5073721;28;20398;-24
2023/04/24 00:24:09;;;;;;;14.50;10.68;;;10.20;99.90;;;;;;5073706;28;20094;-24
2023/04/24 00:26:35;;;;;;;12.15;10.35;;;10.20;99.90;;;;;;5073966;28;20201;-24
2023/04/24 00:29:00;;;;;;;13.07;10.20;;;10.10;99.90;;;;;;5055842;28;20534;-24
2023/04/24 00:31:26;;;;;;;14.82;11.38;;;10.20;99.90;;;;;;5073462;28;20048;-25
2023/04/24 00:33:52;;;;;;;17.15;12.82;;;10.20;99.90;;;;;;5055943;28;20237;-24
2023/04/24 00:36:20;;;;;;;16.48;12.20;;;10.10;99.90;;;;;;5072764;28;20045;-24
2023/04/24 00:38:46;;;;;;;17.50;12.13;;;10.10;99.90;;;;;;5073793;28;20048;-25
2023/04/24 00:41:12;;;;;;;16.40;12.15;;;10.20;99.90;;;;;;5073543;28;20070;-25
2023/04/24 00:43:38;;;;;;;16.70;12.27;;;10.10;99.90;;;;;;5074031;28;20044;-24
2023/04/24 00:46:03;;;;;;;19.02;12.48;;;10.10;99.90;;;;;;5073506;28;20113;-24
2023/04/24 00:48:30;;;;;;;15.27;10.98;;;10.10;99.90;;;;;;5073484;28;20061;-24
2023/04/24 00:50:57;;;;;;;15.82;12.55;;;10.10;99.90;;;;;;5073511;28;20060;-24
2023/04/24 00:53:22;;;;;;;16.38;11.32;;;10.10;99.90;;;;;;5073397;28;20040;-24
2023/04/24 00:55:48;;;;;;;17.17;11.93;;;10.10;99.90;;;;;;5073389;28;20109;-24
2023/04/24 00:58:14;;;;;;;12.93;8.77;;;10.10;99.90;;;;;;5073420;28;20053;-25
2023/04/24 01:00:40;;;;;;;12.50;8.20;;;10.10;99.90;;;;;;5073348;28;20045;-24
2023/04/24 01:03:07;;;;;;;7.95;6.90;;;10.10;99.90;;;;;;5073392;28;20044;-24
2023/04/24 01:05:33;;;;;;;7.03;5.93;;;10.00;99.90;;;;;;5073323;28;20048;-24
2023/04/24 01:08:00;;;;;;;6.82;5.10;;;9.90;99.90;;;;;;5073643;28;20075;-24
2023/04/24 01:10:29;;;;;;;5.45;4.38;;;9.80;99.90;;;;;;5073258;28;20084;-25
2023/04/24 01:12:55;;;;;;;4.78;4.18;;;9.90;99.90;;;;;;5073167;28;20052;-24
2023/04/24 01:15:21;;;;;;;7.03;5.28;;;9.80;99.90;;;;;;5073195;28;20059;-24
2023/04/24 01:17:47;;;;;;;4.93;4.25;;;9.80;99.90;;;;;;5055355;28;20045;-24
2023/04/24 01:20:13;;;;;;;4.90;4.40;;;9.80;99.90;;;;;;5055344;28;20056;-24
2023/04/24 01:22:40;;;;;;;4.32;3.35;;;9.80;99.90;;;;;;5073127;28;20094;-24
2023/04/24 01:25:06;;;;;;;4.47;3.67;;;9.70;99.90;;;;;;5073651;28;20044;-24
2023/04/24 01:27:32;;;;;;;6.82;4.03;;;9.60;99.90;;;;;;5055581;28;20048;-25
2023/04/24 01:29:57;;;;;;;4.55;3.97;;;9.60;99.90;;;;;;5073004;28;20390;-24
2023/04/24 01:32:24;;;;;;;6.07;3.10;;;9.60;99.90;;;;;;5073034;28;20470;-24
2023/04/24 01:34:51;;;;;;;4.28;3.67;;;9.60;99.90;;;;;;5073041;28;20052;-24
2023/04/24 01:37:16;;;;;;;5.65;3.72;;;9.50;99.90;;;;;;5073812;28;20044;-24
2023/04/24 01:39:43;;;;;;;3.75;3.00;;;9.50;99.90;;;;;;5072988;28;20098;-24
2023/04/24 01:42:09;;;;;;;4.30;3.30;;;9.50;99.90;;;;;;5056169;28;20088;-24
2023/04/24 01:44:35;;;;;;;4.82;3.92;;;9.50;99.90;;;;;;5073745;28;20079;-24
2023/04/24 01:47:01;;;;;;;4.57;3.83;;;9.60;99.90;;;;;;5074312;28;20471;-24
2023/04/24 01:49:27;;;;;;;5.40;3.72;;;9.50;99.90;;;;;;5058322;28;20145;-24
2023/04/24 01:51:53;;;;;;;5.93;3.70;;;9.50;99.90;;;;;;5076957;28;20193;-24
2023/04/24 01:54:19;;;;;;;4.35;3.90;;;9.50;99.90;;;;;;5076441;28;20055;-24
2023/04/24 01:56:46;;;;;;;5.43;4.25;;;9.60;99.90;;;;;;5042265;28;20044;-24
2023/04/24 01:59:12;;;;;;;5.70;4.53;;;9.60;99.90;;;;;;5076333;28;20056;-24
2023/04/24 02:01:38;;;;;;;7.60;4.78;;;9.50;99.90;;;;;;5076855;28;20040;-24
2023/04/24 02:04:06;;;;;;;5.32;4.22;;;9.50;99.90;;;;;;5076287;28;20060;-24
2023/04/24 02:06:32;;;;;;;6.40;5.07;;;9.50;99.90;;;;;;5076773;28;20048;-24
2023/04/24 02:08:59;;;;;;;5.50;4.90;;;9.60;99.90;;;;;;5076240;28;20179;-24
2023/04/24 02:11:25;;;;;;;5.57;4.57;;;9.60;99.90;;;;;;5076571;28;20044;-24
2023/04/24 02:13:51;;;;;;;6.55;5.38;;;9.50;99.90;;;;;;5076644;28;20080;-24
2023/04/24 02:16:17;;;;;;;5.80;4.60;;;9.60;99.90;;;;;;5059167;28;20455;-24
2023/04/24 02:18:43;;;;;;;5.00;4.20;;;9.60;99.90;;;;;;5076005;28;20127;-24
2023/04/24 02:21:09;;;;;;;5.22;4.72;;;9.50;99.90;;;;;;5075985;28;20050;-24
2023/04/24 02:23:35;;;;;;;5.40;4.40;;;9.50;99.90;;;;;;5075909;28;20041;-24
2023/04/24 02:26:01;;;;;;;5.80;4.45;;;9.60;99.90;;;;;;5075868;28;20085;-24
2023/04/24 02:28:27;;;;;;;5.65;5.00;;;9.60;99.90;;;;;;5075806;28;20044;-23
2023/04/24 02:30:52;;;;;;;6.25;5.38;;;9.60;99.90;;;;;;5076016;28;20437;-23
2023/04/24 02:33:18;;;;;;;7.60;4.78;;;9.60;99.90;;;;;;5075665;28;20037;-23
2023/04/24 02:35:44;;;;;;;5.85;5.25;;;9.60;99.90;;;;;;5058886;28;20041;-23
2023/04/24 02:38:09;;;;;;;6.80;5.63;;;9.60;99.90;;;;;;5075716;28;20094;-23
2023/04/24 02:40:35;;;;;;;6.32;5.72;;;9.60;99.90;;;;;;5075910;28;20163;-23
2023/04/24 02:43:01;;;;;;;8.95;6.60;;;9.60;99.90;;;;;;5075546;28;20040;-23
2023/04/24 02:45:26;;;;;;;7.30;6.45;;;9.60;99.90;;;;;;5057549;28;20059;-23
2023/04/24 02:47:52;;;;;;;8.95;7.57;;;9.60;99.90;;;;;;5076240;28;20051;-23
2023/04/24 02:50:18;;;;;;;7.35;6.65;;;9.60;99.90;;;;;;5076191;28;20428;-23
2023/04/24 02:52:43;;;;;;;10.00;7.25;;;9.60;99.90;;;;;;5075588;28;20059;-24
2023/04/24 02:55:09;;;;;;;8.77;7.20;;;9.60;99.90;;;;;;5075866;28;20494;-23
2023/04/24 02:57:35;;;;;;;9.68;8.65;;;9.70;99.90;;;;;;5075141;28;20101;-23
2023/04/24 03:00:01;;;;;;;10.32;9.23;;;9.70;99.90;;;;;;5056810;28;20047;-24
2023/04/24 03:02:26;;;;;;;10.00;8.80;;;9.70;99.90;;;;;;5075141;28;20113;-23
2023/04/24 03:04:52;;;;;;;10.38;9.00;;;9.70;99.90;;;;;;5041235;28;20052;-23
2023/04/24 03:07:20;;;;;;;10.43;9.32;;;9.70;99.90;;;;;;5075409;28;20124;-23
2023/04/24 03:09:47;;;;;;;12.07;10.10;;;9.70;99.90;;;;;;5057389;28;20095;-24
2023/04/24 03:12:12;;;;;;;10.48;8.35;;;9.70;99.90;;;;;;5075423;28;20044;-23
2023/04/24 03:14:38;;;;;;;10.85;9.55;;;9.70;99.90;;;;;;5075414;28;20075;-23
2023/04/24 03:17:04;;;;;;;13.20;10.93;;;9.70;99.90;;;;;;5075151;28;20084;-23
2023/04/24 03:19:30;;;;;;;12.35;10.43;;;9.80;99.90;;;;;;5075330;28;20387;-24
2023/04/24 03:21:55;;;;;;;12.10;8.80;;;9.70;99.90;;;;;;5074946;28;20056;-23
2023/04/24 03:24:22;;;;;;;13.50;11.05;;;9.80;99.90;;;;;;5057206;28;20037;-23
2023/04/24 03:26:48;;;;;;;15.52;11.98;;;9.80;99.90;;;;;;5057082;28;20063;-23
2023/04/24 03:29:13;;;;;;;15.82;11.95;;;9.80;99.90;;;;;;5074629;28;20044;-23
2023/04/24 03:31:39;;;;;;;13.82;11.50;;;9.80;99.90;;;;;;5074849;28;20374;-23
2023/04/24 03:34:05;;;;;;;17.05;12.73;;;9.80;99.90;;;;;;5074518;28;20044;-23
2023/04/24 03:36:31;;;;;;;16.25;12.30;;;9.80;99.90;;;;;;5074481;28;20052;-23
2023/04/24 03:38:57;;;;;;;15.57;12.60;;;9.90;99.90;;;;;;5057114;28;20083;-23
2023/04/24 03:41:22;;;;;;;18.02;12.57;;;9.90;99.90;;;;;;5056813;28;20087;-23
2023/04/24 03:43:48;;;;;;;15.95;13.18;;;9.90;99.90;;;;;;5074864;28;20102;-24
2023/04/24 03:46:14;;;;;;;18.48;14.30;;;9.90;99.90;;;;;;5074333;28;20063;-24
2023/04/24 03:48:40;;;;;;;19.90;14.05;;;9.90;99.90;;;;;;5074045;28;20120;-24
2023/04/24 03:51:06;;;;;;;19.63;15.00;;;9.90;99.90;;;;;;5074218;28;20040;-23
2023/04/24 03:53:32;;;;;;;18.88;13.95;;;9.90;99.90;;;;;;5074080;28;20040;-24
2023/04/24 03:55:57;;;;;;;21.95;14.80;;;9.90;99.90;;;;;;5056246;28;20049;-23
2023/04/24 03:58:23;;;;;;;23.10;15.45;;;9.90;99.90;;;;;;5056411;28;20135;-23
2023/04/24 04:00:49;;;;;;;22.70;16.77;;;9.90;99.90;;;;;;5056326;28;20127;-23
2023/04/24 04:03:16;;;;;;;19.70;16.17;;;9.90;99.90;;;;;;5073986;28;20044;-23
2023/04/24 04:05:41;;;;;;;25.50;15.57;;;9.90;99.90;;;;;;5073996;28;20055;-24
2023/04/24 04:08:07;;;;;;;22.23;16.83;;;9.90;99.90;;;;;;5056015;28;20040;-23
2023/04/24 04:10:33;;;;;;;20.30;14.50;;;9.90;99.90;;;;;;5056171;28;20051;-24
2023/04/24 04:12:58;;;;;;;25.52;17.25;;;10.00;99.90;;;;;;5073756;28;20040;-24
2023/04/24 04:15:24;;;;;;;28.63;17.85;;;9.90;99.90;;;;;;5073867;28;20055;-24
2023/04/24 04:17:50;;;;;;;23.83;17.70;;;9.90;99.90;;;;;;5073514;28;20604;-23
2023/04/24 04:20:16;;;;;;;22.45;17.15;;;9.90;99.90;;;;;;5073779;28;20059;-24
2023/04/24 04:22:41;;;;;;;18.05;11.57;;;9.90;99.90;;;;;;5073734;28;20036;-24
2023/04/24 04:25:08;;;;;;;16.67;10.55;;;9.90;99.90;;;;;;5073982;28;20044;-24
2023/04/24 04:27:34;;;;;;;14.65;9.32;;;9.90;99.90;;;;;;5073671;28;20052;-24
2023/04/24 04:30:04;;;;;;;13.77;9.27;;;9.90;99.90;;;;;;5073592;28;20048;-24
2023/04/24 04:32:34;;;;;;;8.95;6.18;;;9.90;99.90;;;;;;5056565;28;20371;-24
2023/04/24 04:35:03;;;;;;;9.07;6.35;;;9.80;99.90;;;;;;5055957;28;20064;-24
2023/04/24 04:37:33;;;;;;;7.30;4.38;;;9.80;99.90;;;;;;5055809;28;20084;-24
2023/04/24 04:39:59;;;;;;;6.03;4.30;;;9.80;99.90;;;;;;5073548;28;20474;-25
2023/04/24 04:42:28;;;;;;;9.10;5.47;;;9.80;99.90;;;;;;5073537;28;20165;-25
2023/04/24 04:44:55;;;;;;;6.88;5.22;;;9.80;99.90;;;;;;5074149;28;20368;-25
2023/04/24 04:47:23;;;;;;;8.43;5.30;;;9.70;99.90;;;;;;5073516;28;20090;-25
2023/04/24 04:49:49;;;;;;;6.88;4.82;;;9.70;99.90;;;;;;5073048;28;20132;-25
2023/04/24 04:52:16;;;;;;;7.82;5.70;;;9.70;99.90;;;;;;5073218;28;20127;-26
2023/04/24 04:54:42;;;;;;;8.43;4.85;;;9.70;99.90;;;;;;5073633;28;20094;-26
2023/04/24 04:57:07;;;;;;;9.95;5.43;;;9.70;99.90;;;;;;5073288;28;20044;-29
2023/04/24 04:59:33;;;;;;;6.30;4.93;;;9.60;99.90;;;;;;5072921;28;20052;-30
2023/04/24 05:01:59;;;;;;;9.70;5.70;;;9.60;99.90;;;;;;5073722;28;20044;-29
2023/04/24 05:04:26;;;;;;;6.22;4.65;;;9.70;99.90;;;;;;5056173;28;20054;-30
2023/04/24 05:06:52;;;;;;;5.60;4.35;;;9.60;99.90;;;;;;5039085;28;20090;-29
2023/04/24 05:09:18;;;;;;;7.47;4.32;;;9.60;99.90;;;;;;5055593;28;20052;-29
2023/04/24 05:11:44;;;;;;;8.00;4.55;;;9.60;99.90;;;;;;5055345;28;20479;-29
2023/04/24 05:14:10;;;;;;;11.63;6.55;;;9.60;99.90;;;;;;5073288;28;20390;-29
2023/04/24 05:16:36;;;;;;;7.95;5.38;;;9.60;99.90;;;;;;5074033;28;20052;-31
2023/04/24 05:19:03;;;;;;;7.15;4.03;;;9.60;99.90;;;;;;5073228;28;20471;-29
2023/04/24 05:21:29;;;;;;;8.88;5.07;;;9.50;99.90;;;;;;5055908;28;20132;-29
2023/04/24 05:23:55;;;;;;;5.70;4.00;;;9.60;99.90;;;;;;5077064;28;20048;-29
2023/04/24 05:26:20;;;;;;;6.25;4.10;;;9.50;99.90;;;;;;5059299;28;20364;-30
2023/04/24 05:28:46;;;;;;;6.68;4.28;;;9.50;99.90;;;;;;5077446;28;20044;-29
2023/04/24 05:31:12;;;;;;;6.05;4.35;;;9.50;99.90;;;;;;5076784;28;20044;-30
2023/04/24 05:33:38;;;;;;;5.43;4.28;;;9.50;99.90;;;;;;5076790;28;20128;-29
2023/04/24 05:36:05;;;;;;;7.20;4.47;;;9.40;99.90;;;;;;5059237;28;20080;-29
2023/04/24 05:38:31;;;;;;;10.30;6.30;;;9.40;99.90;;;;;;5059206;28;20054;-29
2023/04/24 05:40:56;;;;;;;11.98;6.20;;;9.40;99.90;;;;;;5076706;28;20044;-29
2023/04/24 05:43:22;;;;;;;9.48;7.28;;;9.40;99.90;;;;;;5076639;28;20109;-30
2023/04/24 05:45:48;;;;;;;12.43;7.47;;;9.40;99.90;;;;;;5077460;28;20073;-31
2023/04/24 05:48:13;;;;;;;10.05;6.25;;;9.50;99.90;;;;;;5076540;28;20593;-30
2023/04/24 05:50:39;;;;;;;10.98;7.60;;;9.50;99.90;;;;;;5076056;28;20056;-30
2023/04/24 05:53:06;;;;;;;11.90;7.70;;;9.50;99.90;;;;;;5059398;28;20156;-31
2023/04/24 05:55:32;;;;;;;11.65;6.32;;;9.50;99.90;;;;;;5059106;28;20074;-31
2023/04/24 05:57:58;;;;;;;10.05;4.97;;;9.40;99.90;;;;;;5058682;28;20422;-31
2023/04/24 06:00:25;;;;;;;9.30;5.60;;;9.50;99.90;;;;;;5076435;28;20505;-31
2023/04/24 06:02:52;;;;;;;12.15;6.90;;;9.40;99.90;;;;;;5076296;28;20048;-30
2023/04/24 06:05:18;;;;;;;10.20;7.57;;;9.40;99.90;;;;;;5075987;28;20509;-31
2023/04/24 06:07:44;;;;;;;16.25;9.90;;;9.50;99.90;;;;;;5058594;28;20048;-32
2023/04/24 06:10:10;;;;;;;17.23;11.45;;;9.50;99.90;;;;;;5076190;28;20054;-31
2023/04/24 06:12:37;;;;;;;18.40;11.85;;;9.50;99.90;;;;;;5076878;28;20045;-31
2023/04/24 06:15:03;;;;;;;11.15;9.10;;;9.60;99.90;;;;;;5058856;28;20054;-30
2023/04/24 06:17:30;;;;;;;11.55;8.45;;;9.60;99.90;;;;;;5076095;28;20098;-31
2023/04/24 06:19:56;;;;;;;11.05;7.78;;;9.60;99.90;;;;;;5058294;28;20564;-31
2023/04/24 06:22:21;;;;;;;8.85;7.32;;;9.50;99.90;;;;;;5058662;28;20040;-30
2023/04/24 06:24:48;;;;;;;12.15;7.57;;;9.50;99.90;;;;;;5058610;28;20044;-30
2023/04/24 06:27:14;;;;;;;11.57;7.93;;;9.50;99.90;;;;;;5075900;28;20501;-30
2023/04/24 06:29:40;;;;;;;8.18;6.55;;;9.60;99.90;;;;;;5075887;28;20041;-31
2023/04/24 06:32:05;;;;;;;11.27;6.90;;;9.60;99.90;;;;;;5057721;28;20055;-30
2023/04/24 06:34:33;;;;;;;11.15;6.55;;;9.70;99.90;;;;;;5074565;28;20048;-31
2023/04/24 06:36:59;;;;;;;6.13;3.80;;;9.70;99.90;;;;;;5075730;28;20052;-30
2023/04/24 06:39:25;;;;;;;5.95;3.90;;;9.70;99.90;;;;;;5057884;28;20055;-30
2023/04/24 06:41:51;;;;;;;5.28;2.95;;;9.60;99.90;;;;;;5075875;28;20040;-32
2023/04/24 06:44:16;;;;;;;2.75;2.00;;;9.60;99.90;;;;;;5076144;28;20048;-31
2023/04/24 06:46:42;;;;;;;5.35;2.40;;;9.50;99.90;;;;;;5075496;28;20102;-30
2023/04/24 06:49:08;;;;;;;4.63;2.50;;;9.60;99.90;;;;;;5075216;28;20056;-30
2023/04/24 06:51:34;;;;;;;4.97;2.50;;;9.50;99.90;;;;;;5075307;28;20056;-30
2023/04/24 06:54:00;;;;;;;6.32;2.38;;;9.60;99.90;;;;;;5075322;28;20481;-29
2023/04/24 06:56:26;;;;;;;6.85;2.30;;;9.60;99.90;;;;;;5075362;28;20049;-29
2023/04/24 06:58:52;;;;;;;5.18;2.90;;;9.60;99.90;;;;;;5076089;28;20443;-30
2023/04/24 07:01:17;;;;;;;11.27;3.63;;;9.60;99.90;;;;;;5075208;28;20093;-30
2023/04/24 07:03:43;;;;;;;6.35;2.67;;;9.50;99.90;;;;;;5075443;28;20082;-29
2023/04/24 07:06:11;;;;;;;6.95;2.47;;;9.60;99.90;;;;;;5075104;28;20044;-29
2023/04/24 07:08:37;;;;;;;6.28;3.40;;;9.60;99.90;;;;;;5040896;28;20040;-30
2023/04/24 07:11:02;;;;;;;5.75;3.40;;;9.60;99.90;;;;;;5057142;28;20139;-29
2023/04/24 07:13:28;;;;;;;7.38;3.30;;;9.50;99.90;;;;;;5075442;28;20076;-29
2023/04/24 07:15:55;;;;;;;6.43;2.75;;;9.50;99.90;;;;;;5075757;28;20516;-30
2023/04/24 07:18:22;;;;;;;5.15;2.22;;;9.40;99.90;;;;;;5075706;28;20045;-29
2023/04/24 07:20:49;;;;;;;4.75;2.30;;;9.30;99.90;;;;;;5057259;28;20398;-29
2023/04/24 07:23:16;;;;;;;6.22;2.05;;;9.40;99.90;;;;;;5056922;28;20048;-29
2023/04/24 07:25:42;;;;;;;5.85;1.75;;;9.50;99.90;;;;;;5074715;28;20049;-29
2023/04/24 07:28:08;;;;;;;8.70;2.15;;;9.50;99.90;;;;;;5074715;28;20044;-29
2023/04/24 07:30:34;;;;;;;8.13;2.50;;;9.50;99.90;;;;;;5074511;28;20066;-29
2023/04/24 07:33:00;;;;;;;7.10;3.50;;;9.40;99.90;;;;;;5074472;28;20063;-29
2023/04/24 07:35:28;;;;;;;10.07;4.38;;;9.40;99.90;;;;;;5074507;28;20044;-29
2023/04/24 07:37:54;;;;;;;11.73;5.95;;;9.40;99.90;;;;;;5074482;28;20467;-29
2023/04/24 07:40:20;;;;;;;13.68;7.68;;;9.40;99.90;;;;;;5074370;28;20099;-29
2023/04/24 07:42:48;;;;;;;16.35;9.75;;;9.40;99.90;;;;;;5075156;28;20497;-28
2023/04/24 07:45:14;;;;;;;16.63;10.70;;;9.30;99.90;;;;;;5073801;28;20518;-28
2023/04/24 07:47:43;;;;;;;17.63;10.32;;;9.20;99.90;;;;;;5074312;28;20044;-29
2023/04/24 07:50:10;;;;;;;19.40;12.98;;;9.20;99.90;;;;;;5073799;28;20092;-28
2023/04/24 07:52:35;;;;;;;19.13;12.18;;;9.10;99.90;;;;;;5074127;28;20048;-27
2023/04/24 07:55:02;;;;;;;27.65;17.15;;;9.10;99.90;;;;;;5074386;28;20522;-28
2023/04/24 07:57:28;;;;;;;34.15;18.42;;;9.10;99.90;;;;;;5074093;28;20056;-28
2023/04/24 07:59:55;;;;;;;30.40;16.75;;;9.00;99.90;;;;;;5074911;28;20150;-27
2023/04/24 08:02:25;;;;;;;28.90;16.83;;;9.00;99.90;;;;;;5056745;28;20044;-28
2023/04/24 08:04:53;;;;;;;38.60;20.20;;;9.00;99.90;;;;;;5074128;28;20487;-27
2023/04/24 08:07:19;;;;;;;33.78;17.55;;;9.00;99.90;;;;;;5056626;28;20053;-27
2023/04/24 08:09:45;;;;;;;28.67;19.45;;;8.90;99.90;;;;;;5073938;28;20418;-27
2023/04/24 08:12:11;;;;;;;30.20;17.42;;;8.90;99.90;;;;;;5074614;28;20041;-27
2023/04/24 08:14:36;;;;;;;21.60;13.30;;;9.00;99.90;;;;;;5073869;28;20472;-27
2023/04/24 08:17:03;;;;;;;22.23;13.10;;;8.90;99.90;;;;;;5073889;28;20041;-26
2023/04/24 08:19:29;;;;;;;27.58;14.90;;;8.90;99.90;;;;;;5073765;28;20543;-26
2023/04/24 08:21:55;;;;;;;28.50;16.73;;;8.90;99.90;;;;;;5073755;28;20083;-26
2023/04/24 08:24:21;;;;;;;29.13;13.57;;;8.90;99.90;;;;;;5073751;28;20105;-26
2023/04/24 08:26:50;;;;;;;20.50;11.70;;;8.80;99.90;;;;;;5073729;28;20052;-26
2023/04/24 08:29:16;;;;;;;20.13;12.82;;;8.80;99.90;;;;;;5055805;28;20558;-26
2023/04/24 08:31:41;;;;;;;28.90;13.55;;;8.80;99.90;;;;;;5055862;28;20052;-26
2023/04/24 08:34:08;;;;;;;23.35;12.98;;;8.80;99.90;;;;;;5074158;28;20048;-25
2023/04/24 08:36:34;;;;;;;19.92;13.15;;;8.70;99.90;;;;;;5073906;28;20098;-25
2023/04/24 08:39:00;;;;;;;18.33;11.50;;;8.70;99.90;;;;;;5073616;28;20158;-25
2023/04/24 08:41:27;;;;;;;24.38;11.65;;;8.70;99.90;;;;;;5073607;28;20090;-25
2023/04/24 08:43:54;;;;;;;19.02;11.85;;;8.70;99.90;;;;;;5074090;28;20055;-24
2023/04/24 08:46:21;;;;;;;28.08;12.77;;;8.70;99.90;;;;;;5074110;28;20056;-24
2023/04/24 08:48:49;;;;;;;18.30;11.23;;;8.70;99.90;;;;;;5073207;28;20059;-24
2023/04/24 08:51:15;;;;;;;19.48;10.23;;;8.80;99.90;;;;;;5073265;28;20416;-24
2023/04/24 08:53:41;;;;;;;21.42;11.27;;;8.70;99.90;;;;;;5073394;28;20041;-24
2023/04/24 08:56:07;;;;;;;25.73;8.43;;;8.70;99.90;;;;;;5073467;28;20097;-24
2023/04/24 08:58:33;;;;;;;11.35;7.47;;;8.80;99.90;;;;;;5077535;28;20056;-24
2023/04/24 09:01:00;;;;;;;14.00;7.47;;;8.80;99.90;;;;;;5043302;28;20040;-24
2023/04/24 09:03:28;;;;;;;13.52;5.97;;;8.80;99.90;;;;;;5077430;28;20040;-23
2023/04/24 09:05:55;;;;;;;11.38;6.80;;;9.00;99.90;;;;;;5077718;28;20491;-23
2023/04/24 09:08:24;;;;;;;10.48;6.75;;;8.90;99.90;;;;;;5077358;28;20044;-23
2023/04/24 09:10:50;;;;;;;13.52;7.22;;;8.90;99.90;;;;;;5077349;28;20403;-23
2023/04/24 09:13:16;;;;;;;15.30;7.85;;;9.00;99.90;;;;;;5077134;28;20047;-23
2023/04/24 09:15:42;;;;;;;11.80;6.50;;;9.00;99.90;;;;;;5077229;28;20045;-23
2023/04/24 09:18:08;;;;;;;11.95;6.63;;;9.10;99.90;;;;;;5059317;28;20048;-23
2023/04/24 09:20:35;;;;;;;13.73;6.10;;;9.10;99.90;;;;;;5077124;28;20482;-23
2023/04/24 09:23:01;;;;;;;9.85;6.35;;;9.10;99.90;;;;;;5077125;28;20070;-23
2023/04/24 09:25:38;;;;;;;11.93;6.47;;;9.00;99.90;;;;;;5077217;28;20132;-23
2023/04/24 09:28:05;;;;;;;14.10;7.53;;;8.90;99.90;;;;;;5077526;28;20044;-23
2023/04/24 09:30:31;;;;;;;15.85;7.25;;;8.90;99.90;;;;;;5076525;28;20436;-23
2023/04/24 09:33:15;;;;;;;17.83;6.57;;;8.80;99.90;;;;;;5076808;28;20123;-23
2023/04/24 09:35:51;;;;;;;17.67;6.03;;;8.80;99.90;;;;;;5076916;28;20073;-23
2023/04/24 09:38:17;;;;;;;18.25;6.13;;;8.80;99.90;;;;;;5059056;28;20446;-22
2023/04/24 09:40:43;;;;;;;15.15;5.85;;;8.90;99.90;;;;;;5058903;28;20080;-22
2023/04/24 09:43:12;;;;;;;12.82;5.20;;;9.00;99.90;;;;;;5076698;28;20131;-22
2023/04/24 09:45:39;;;;;;;11.65;5.07;;;9.00;1.40;;;;;;5076632;28;20044;-22
2023/04/24 09:48:09;;;;;;;9.27;4.45;;;9.20;1.00;;;;;;5058995;28;20052;-22
2023/04/24 09:50:35;;;;;;;9.85;4.22;;;9.30;99.90;;;;;;5076791;28;20056;-22
2023/04/24 09:53:03;;;;;;;11.40;4.38;;;9.50;99.90;;;;;;5077022;28;20136;-22
2023/04/24 09:55:29;;;;;;;7.15;3.33;;;9.70;99.90;;;;;;5076394;28;20044;-22
2023/04/24 09:57:59;;;;;;;13.05;3.80;;;9.80;99.90;;;;;;5076398;28;20048;-22
2023/04/24 10:00:31;;;;;;;6.47;2.50;;;9.90;1.00;;;;;;5076369;28;20049;-22
2023/04/24 10:03:01;;;;;;;9.32;2.78;;;9.90;1.00;;;;;;5058481;28;20052;-22
2023/04/24 10:05:35;;;;;;;9.98;3.00;;;10.00;99.90;;;;;;5077111;28;20044;-22
2023/04/24 10:08:06;;;;;;;11.80;2.72;;;10.10;1.00;;;;;;5076989;28;20051;-22
2023/04/24 10:10:34;;;;;;;8.85;2.60;;;10.10;99.90;;;;;;5059193;28;20048;-22
2023/04/24 10:13:01;;;;;;;6.72;2.65;;;10.30;1.00;;;;;;5059027;28;20086;-22
2023/04/24 10:15:27;;;;;;;11.60;3.20;;;10.30;99.90;;;;;;5058439;28;20509;-22
2023/04/24 10:17:53;;;;;;;10.02;3.00;;;10.40;99.90;;;;;;5076058;28;20131;-22
2023/04/24 10:20:23;;;;;;;10.30;3.00;;;10.50;1.00;;;;;;5076566;28;20182;-22
2023/04/24 10:22:52;;;;;;;6.60;2.42;;;10.50;4.90;;;;;;5042629;28;20052;-22
2023/04/24 10:25:23;;;;;;;13.10;2.78;;;10.40;99.90;;;;;;5075851;28;20435;-22
2023/04/24 10:27:50;;;;;;;8.10;2.28;;;10.30;99.90;;;;;;5058806;28;20094;-22
2023/04/24 10:30:18;;;;;;;9.63;2.10;;;10.20;99.90;;;;;;5075799;28;20041;-22
2023/04/24 10:32:44;;;;;;;12.15;2.67;;;10.20;1.00;;;;;;5075788;28;20047;-22
2023/04/24 10:35:12;;;;;;;6.10;2.25;;;10.10;95.30;;;;;;5075771;28;20059;-22
2023/04/24 10:37:49;;;;;;;8.45;2.13;;;10.10;99.90;;;;;;5075709;28;20048;-22
2023/04/24 10:40:18;;;;;;;7.43;2.97;;;10.00;99.90;;;;;;5075703;28;20048;-21
2023/04/24 10:42:48;;;;;;;9.20;2.97;;;10.00;99.90;;;;;;5075606;28;20043;-22
2023/04/24 10:45:21;;;;;;;7.03;2.15;;;10.00;99.90;;;;;;5075600;28;20050;-22
2023/04/24 10:47:58;;;;;;;6.95;2.03;;;10.00;99.90;;;;;;5058752;28;20094;-22
2023/04/24 10:50:26;;;;;;;4.90;2.15;;;10.00;99.90;;;;;;5057376;28;20053;-22
2023/04/24 10:52:54;;;;;;;8.60;2.20;;;10.00;99.90;;;;;;5075357;28;20045;-22
2023/04/24 10:55:50;;;;;;;9.60;2.15;;;10.00;1.40;;;;;;5075370;28;20123;-21
2023/04/24 10:58:17;;;;;;;11.35;2.55;;;10.00;99.90;;;;;;5075379;28;20140;-21
2023/04/24 11:00:44;;;;;;;5.13;1.52;;;9.90;99.90;;;;;;5076120;28;20083;-21
2023/04/24 11:03:32;;;;;;;8.63;1.65;;;10.00;99.90;;;;;;5075223;28;20045;-21
2023/04/24 11:06:01;;;;;;;9.77;2.03;;;9.90;99.90;;;;;;5075801;28;20092;-21
2023/04/24 11:08:32;;;;;;;11.77;1.50;;;10.00;99.90;;;;;;5075619;28;20359;-21
2023/04/24 11:11:01;;;;;;;11.88;2.40;;;10.00;99.90;;;;;;5074978;28;20052;-21
2023/04/24 11:13:56;;;;;;;10.57;1.98;;;10.10;1.00;;;;;;5075208;28;20465;-21
2023/04/24 11:16:26;;;;;;;8.90;1.42;;;10.20;99.90;;;;;;5066245;28;20056;-22
2023/04/24 11:19:16;;;;;;;5.28;1.42;;;10.20;99.90;;;;;;5074501;28;20044;-21
2023/04/24 11:22:01;;;;;;;7.63;2.47;;;10.10;99.90;;;;;;5062761;28;20494;-21
2023/04/24 11:24:33;;;;;;;10.88;1.70;;;9.90;1.00;;;;;;5074763;28;20044;-21
2023/04/24 11:27:20;;;;;;;7.25;1.38;;;9.80;45.60;;;;;;5074951;28;20044;-22
2023/04/24 11:30:01;;;;;;;9.48;2.08;;;9.80;1.00;;;;;;5074631;28;20048;-21
2023/04/24 11:32:28;;;;;;;5.32;0.98;;;9.90;1.00;;;;;;5042505;28;20115;-21
2023/04/24 11:35:08;;;;;;;5.60;1.23;;;10.00;99.90;;;;;;5074506;28;20079;-21
2023/04/24 11:37:41;;;;;;;6.85;1.90;;;10.00;12.00;;;;;;5040852;28;20053;-21
2023/04/24 11:40:09;;;;;;;6.57;1.27;;;10.20;81.30;;;;;;5074437;28;20055;-21
2023/04/24 11:42:36;;;;;;;3.83;1.30;;;10.10;99.90;;;;;;5074941;28;20040;-21
2023/04/24 11:45:17;;;;;;;6.63;1.60;;;10.00;99.90;;;;;;5056675;28;20402;-21
2023/04/24 11:47:44;;;;;;;9.50;2.28;;;10.00;1.00;;;;;;5056627;28;20045;-21
2023/04/24 11:50:15;;;;;;;4.22;1.27;;;9.80;1.00;;;;;;5074421;28;20441;-21
2023/04/24 11:52:42;;;;;;;6.82;1.40;;;9.60;1.00;;;;;;5040714;28;20131;-21
2023/04/24 11:55:25;;;;;;;4.20;1.20;;;9.30;99.90;;;;;;5073840;28;20590;-21
2023/04/24 11:57:56;;;;;;;8.27;1.65;;;9.00;99.90;;;;;;5074264;28;20044;-21
2023/04/24 12:00:27;;;;;;;3.17;0.80;;;8.80;99.90;;;;;;5074188;28;20123;-21
2023/04/24 12:03:13;;;;;;;5.50;1.23;;;8.90;99.90;;;;;;5074100;28;20041;-21
2023/04/24 12:05:39;;;;;;;4.20;1.00;;;9.00;99.90;;;;;;5074092;28;20052;-21
2023/04/24 12:08:06;;;;;;;3.50;0.90;;;9.20;99.90;;;;;;5074511;28;20440;-21
2023/04/24 12:10:32;;;;;;;3.80;0.73;;;9.50;8.10;;;;;;5056367;28;20131;-21
2023/04/24 12:13:00;;;;;;;6.40;1.27;;;9.50;1.00;;;;;;5073572;28;20510;-21
2023/04/24 12:15:26;;;;;;;3.97;0.80;;;9.60;1.00;;;;;;5073564;28;20510;-21
2023/04/24 12:17:53;;;;;;;4.68;0.95;;;9.70;1.00;;;;;;5039588;28;20052;-21
2023/04/24 12:20:26;;;;;;;3.10;0.65;;;9.80;99.90;;;;;;5056199;28;20052;-21
2023/04/24 12:22:58;;;;;;;;;;;10.10;1.00;;;;;;5074302;28;20123;-21
2023/04/24 12:25:43;;;;;;;4.32;0.75;;;10.00;1.00;;;;;;5055928;28;19928;-21
2023/04/24 12:28:13;;;;;;;2.58;0.50;;;9.80;1.00;;;;;;5073794;28;20049;-21
2023/04/24 12:30:48;;;;;;;3.30;0.80;;;9.90;27.40;;;;;;5056116;28;20060;-21
2023/04/24 12:33:20;;;;;;;2.95;0.63;;;9.70;1.00;;;;;;5073424;28;20498;-21
2023/04/24 12:35:47;;;;;;;4.30;0.83;;;9.60;99.90;;;;;;5055804;28;20041;-21
2023/04/24 12:38:15;;;;;;;3.00;0.50;;;9.30;99.90;;;;;;5073640;28;20058;-21
2023/04/24 12:40:42;;;;;;;7.25;1.15;;;9.30;99.90;;;;;;5055669;28;20537;-21
2023/04/24 12:43:15;;;;;;;4.63;0.50;;;9.30;99.90;;;;;;5073587;28;20036;-21
2023/04/24 12:45:41;;;;;;;5.15;1.77;;;9.20;99.90;;;;;;5055897;28;20177;-21
2023/04/24 12:48:06;;;;;;;8.18;1.13;;;9.00;99.90;;;;;;5055770;28;20102;-21
2023/04/24 12:50:32;;;;;;;8.00;1.45;;;9.00;1.00;;;;;;5072965;28;20056;-21